Time;durP1;ratioP1;P1;durP2;ratioP2;P2;SDS_P1;SDS_P2;PMS_P1;PMS_P2;Temp;Humidity;BMP_temperature;BMP_pressure;BME280_temperature;BME280_humidity;BME280_pressure;Samples;Min_cycle;Max_cycle;Signal;HPM_P1;HPM_P2
2024/04/08 00:00:26;;;;;;;61.63;55.65;;;16.00;82.00;;;;;;5054958;27;112705;-50
2024/04/08 00:02:52;;;;;;;64.15;58.00;;;15.90;81.70;;;;;;5068683;27;112776;-50
2024/04/08 00:05:18;;;;;;;64.57;58.17;;;15.80;82.10;;;;;;5067677;27;113656;-50
2024/04/08 00:07:45;;;;;;;63.20;56.72;;;15.80;82.30;;;;;;5067740;27;113557;-50
2024/04/08 00:10:11;;;;;;;68.38;61.35;;;15.80;82.00;;;;;;5068542;27;112736;-50
2024/04/08 00:12:40;;;;;;;66.35;59.80;;;15.60;82.30;;;;;;5068758;27;112725;-50
2024/04/08 00:15:07;;;;;;;71.28;63.92;;;15.60;82.60;;;;;;5067644;27;113263;-50
2024/04/08 00:17:33;;;;;;;69.18;62.10;;;15.70;82.50;;;;;;5067121;27;113798;-50
2024/04/08 00:19:59;;;;;;;65.97;59.20;;;15.80;82.50;;;;;;5068293;27;113174;-50
2024/04/08 00:22:25;;;;;;;60.90;54.92;;;15.70;82.60;;;;;;5068611;27;112823;-50
2024/04/08 00:24:52;;;;;;;56.95;51.40;;;15.70;81.90;;;;;;5067411;27;114391;-50
2024/04/08 00:27:17;;;;;;;56.75;50.83;;;15.50;82.10;;;;;;5067646;27;113022;-51
2024/04/08 00:29:43;;;;;;;58.00;52.05;;;15.50;81.90;;;;;;5068304;27;112745;-50
2024/04/08 00:32:09;;;;;;;60.72;54.72;;;15.70;81.60;;;;;;5068189;27;112723;-50
2024/04/08 00:34:34;;;;;;;65.22;58.70;;;15.40;81.60;;;;;;5066847;27;114687;-50
2024/04/08 00:37:00;;;;;;;60.97;54.83;;;15.00;83.00;;;;;;5067576;27;112798;-50
2024/04/08 00:39:26;;;;;;;60.55;54.13;;;15.10;83.00;;;;;;5068300;27;112643;-50
2024/04/08 00:41:51;;;;;;;64.20;57.80;;;15.30;82.50;;;;;;5067514;27;112706;-51
2024/04/08 00:44:17;;;;;;;64.53;57.92;;;15.30;82.60;;;;;;5067367;27;113204;-51
2024/04/08 00:46:43;;;;;;;65.28;58.67;;;15.40;82.20;;;;;;5066793;27;113158;-50
2024/04/08 00:49:10;;;;;;;67.93;61.03;;;15.40;82.40;;;;;;5067925;27;112576;-50
2024/04/08 00:51:36;;;;;;;68.32;61.25;;;15.50;82.30;;;;;;5068075;27;112722;-50
2024/04/08 00:54:01;;;;;;;63.83;57.17;;;15.40;82.10;;;;;;5067104;27;113541;-50
2024/04/08 00:56:28;;;;;;;70.95;63.55;;;15.40;82.00;;;;;;5067338;27;113830;-50
2024/04/08 00:58:54;;;;;;;66.63;59.97;;;15.30;82.50;;;;;;5067984;27;113275;-50
2024/04/08 01:01:20;;;;;;;66.30;59.55;;;15.10;83.60;;;;;;5067896;27;112790;-51
2024/04/08 01:03:46;;;;;;;67.15;60.35;;;15.20;82.90;;;;;;5066670;27;114768;-50
2024/04/08 01:06:12;;;;;;;69.05;62.08;;;15.30;82.80;;;;;;5066993;27;112905;-50
2024/04/08 01:08:40;;;;;;;67.15;60.33;;;15.30;82.30;;;;;;5067756;27;112931;-50
2024/04/08 01:11:07;;;;;;;68.43;61.28;;;15.40;82.50;;;;;;5067987;27;112725;-50
2024/04/08 01:13:33;;;;;;;69.68;62.60;;;15.40;82.30;;;;;;5052108;27;114194;-50
2024/04/08 01:16:00;;;;;;;68.70;61.80;;;15.40;82.50;;;;;;5066466;27;113978;-50
2024/04/08 01:18:25;;;;;;;68.70;61.60;;;15.30;82.70;;;;;;5067044;27;112839;-50
2024/04/08 01:20:51;;;;;;;67.43;60.42;;;15.30;82.60;;;;;;5067712;27;113034;-50
2024/04/08 01:23:19;;;;;;;69.75;62.42;;;15.30;82.60;;;;;;5066548;27;114450;-50
2024/04/08 01:25:45;;;;;;;67.68;61.05;;;15.30;82.40;;;;;;5066329;27;113904;-50
2024/04/08 01:28:11;;;;;;;68.05;60.75;;;15.30;82.40;;;;;;5067617;27;112780;-50
2024/04/08 01:30:38;;;;;;;67.88;60.47;;;15.30;82.30;;;;;;5067417;27;112895;-50
2024/04/08 01:33:04;;;;;;;67.60;60.65;;;15.30;82.10;;;;;;5066373;27;114087;-50
2024/04/08 01:35:29;;;;;;;63.90;57.28;;;15.30;82.10;;;;;;5066433;27;112519;-50
2024/04/08 01:37:55;;;;;;;61.95;55.90;;;15.20;82.40;;;;;;5067357;27;112672;-50
2024/04/08 01:40:21;;;;;;;61.55;55.67;;;15.20;82.10;;;;;;5067500;27;112891;-50
2024/04/08 01:42:46;;;;;;;61.90;55.70;;;15.30;82.10;;;;;;5065863;27;114512;-51
2024/04/08 01:45:12;;;;;;;60.55;54.13;;;15.20;82.00;;;;;;5066501;27;112756;-50
2024/04/08 01:47:38;;;;;;;54.45;49.13;;;15.10;81.80;;;;;;5067510;27;112827;-50
2024/04/08 01:50:05;;;;;;;65.22;58.88;;;14.90;82.20;;;;;;5067222;27;112852;-51
2024/04/08 01:52:30;;;;;;;74.35;66.65;;;14.80;83.50;;;;;;5067289;27;114566;-50
2024/04/08 01:54:56;;;;;;;60.42;54.63;;;14.90;83.50;;;;;;5056069;27;113560;-50
2024/04/08 01:57:22;;;;;;;61.05;54.75;;;14.90;83.50;;;;;;5070988;27;112513;-51
2024/04/08 01:59:47;;;;;;;64.15;57.83;;;14.80;84.10;;;;;;5069322;27;112898;-50
2024/04/08 02:02:13;;;;;;;66.15;59.58;;;14.90;84.20;;;;;;5075039;27;113202;-50
2024/04/08 02:04:39;;;;;;;66.35;59.75;;;14.70;84.50;;;;;;5083212;27;113006;-50
2024/04/08 02:07:04;;;;;;;68.32;61.80;;;14.80;84.20;;;;;;5062321;27;113322;-50
2024/04/08 02:09:30;;;;;;;67.72;60.95;;;14.80;84.00;;;;;;5072827;27;112754;-50
2024/04/08 02:11:56;;;;;;;65.32;58.80;;;14.80;83.70;;;;;;5084104;27;113130;-51
2024/04/08 02:14:22;;;;;;;64.07;57.80;;;14.90;83.60;;;;;;5078438;27;113754;-50
2024/04/08 02:16:48;;;;;;;62.08;56.08;;;14.80;83.60;;;;;;5069711;27;112539;-50
2024/04/08 02:19:13;;;;;;;63.60;57.28;;;14.80;83.10;;;;;;5069347;27;112902;-50
2024/04/08 02:21:39;;;;;;;63.90;57.70;;;14.80;82.80;;;;;;5068565;27;113218;-50
2024/04/08 02:24:05;;;;;;;61.78;55.78;;;14.80;82.50;;;;;;5068024;27;113789;-50
2024/04/08 02:26:30;;;;;;;64.45;58.08;;;14.80;82.80;;;;;;5069249;27;112626;-51
2024/04/08 02:28:59;;;;;;;64.57;58.42;;;14.80;83.00;;;;;;5069163;27;112707;-50
2024/04/08 02:31:25;;;;;;;61.35;55.35;;;14.80;83.20;;;;;;5068584;27;113484;-50
2024/04/08 02:33:52;;;;;;;65.38;58.75;;;14.80;82.50;;;;;;5068454;27;113230;-50
2024/04/08 02:36:18;;;;;;;60.38;54.47;;;14.80;82.60;;;;;;5068969;27;112778;-51
2024/04/08 02:38:43;;;;;;;58.90;53.20;;;14.80;82.50;;;;;;5069000;27;112888;-50
2024/04/08 02:41:09;;;;;;;55.47;50.22;;;14.70;82.40;;;;;;5067382;27;115047;-51
2024/04/08 02:43:35;;;;;;;57.03;51.50;;;14.70;82.20;;;;;;5068234;27;112827;-50
2024/04/08 02:46:02;;;;;;;55.58;50.40;;;14.60;82.40;;;;;;5069108;27;112624;-51
2024/04/08 02:48:28;;;;;;;55.58;50.17;;;14.50;82.50;;;;;;5069089;27;112718;-50
2024/04/08 02:50:53;;;;;;;55.65;50.42;;;14.60;82.50;;;;;;5067981;27;113288;-50
2024/04/08 02:53:19;;;;;;;54.83;49.58;;;14.60;82.20;;;;;;5067760;27;112778;-50
2024/04/08 02:55:44;;;;;;;51.38;46.38;;;14.50;82.20;;;;;;5069480;27;113323;-50
2024/04/08 02:58:10;;;;;;;53.95;48.90;;;14.40;82.30;;;;;;5068713;27;112737;-51
2024/04/08 03:00:38;;;;;;;53.13;48.03;;;14.30;82.00;;;;;;5068010;27;113629;-50
2024/04/08 03:03:05;;;;;;;52.40;47.28;;;14.00;82.60;;;;;;5067360;27;112914;-50
2024/04/08 03:05:30;;;;;;;56.08;50.50;;;14.10;82.50;;;;;;5067977;27;112811;-50
2024/04/08 03:07:56;;;;;;;52.75;47.45;;;14.20;82.20;;;;;;5068906;27;112781;-51
2024/04/08 03:10:25;;;;;;;56.45;50.85;;;14.20;81.90;;;;;;5067635;27;113620;-50
2024/04/08 03:12:53;;;;;;;53.65;48.30;;;14.30;82.50;;;;;;5067693;27;112725;-51
2024/04/08 03:15:19;;;;;;;49.50;44.90;;;14.30;82.20;;;;;;5068161;27;112864;-51
2024/04/08 03:17:44;;;;;;;54.05;49.20;;;14.20;81.60;;;;;;5068619;27;113083;-51
2024/04/08 03:20:10;;;;;;;57.13;51.92;;;13.90;82.50;;;;;;5067015;27;114658;-50
2024/04/08 03:22:36;;;;;;;58.55;53.13;;;13.70;83.50;;;;;;5067493;27;113671;-50
2024/04/08 03:25:01;;;;;;;74.95;65.53;;;13.70;83.50;;;;;;5068403;27;112647;-51
2024/04/08 03:27:27;;;;;;;132.40;76.85;;;13.30;84.80;;;;;;5068290;27;112802;-50
2024/04/08 03:29:53;;;;;;;106.88;75.65;;;13.30;85.10;;;;;;5067358;27;113123;-50
2024/04/08 03:32:19;;;;;;;220.38;78.32;;;13.30;85.60;;;;;;5048459;27;115723;-51
2024/04/08 03:34:44;;;;;;;829.25;104.32;;;13.50;85.60;;;;;;5049385;27;113820;-51
2024/04/08 03:37:10;;;;;;;279.95;92.38;;;13.30;86.70;;;;;;5067525;27;112921;-50
2024/04/08 03:39:36;;;;;;;115.95;86.00;;;13.30;87.00;;;;;;5067105;27;113242;-50
2024/04/08 03:42:02;;;;;;;88.65;80.10;;;13.40;86.30;;;;;;5067323;27;113046;-50
2024/04/08 03:44:28;;;;;;;86.00;77.75;;;13.50;85.70;;;;;;5067937;27;113172;-51
2024/04/08 03:46:54;;;;;;;77.30;69.90;;;13.60;85.20;;;;;;5068279;27;112707;-51
2024/04/08 03:49:19;;;;;;;133.38;66.88;;;13.60;85.00;;;;;;5066617;27;114488;-51
2024/04/08 03:51:45;;;;;;;69.35;62.42;;;13.40;84.80;;;;;;5066843;27;113292;-51
2024/04/08 03:54:11;;;;;;;75.10;67.95;;;13.30;85.10;;;;;;5067543;27;112691;-50
2024/04/08 03:56:37;;;;;;;70.43;64.22;;;13.30;85.40;;;;;;5068820;27;112694;-51
2024/04/08 03:59:02;;;;;;;70.78;64.20;;;13.60;84.90;;;;;;5048290;27;114556;-51
2024/04/08 04:01:29;;;;;;;70.25;63.53;;;13.70;85.00;;;;;;5066820;27;112758;-51
2024/04/08 04:03:54;;;;;;;69.50;62.90;;;13.70;84.40;;;;;;5067862;27;112442;-51
2024/04/08 04:06:20;;;;;;;67.65;61.38;;;13.80;84.70;;;;;;5067761;27;113150;-50
2024/04/08 04:08:48;;;;;;;58.67;53.45;;;13.90;84.10;;;;;;5066876;27;113132;-50
2024/04/08 04:11:13;;;;;;;56.65;51.88;;;13.80;83.60;;;;;;5066578;27;113052;-51
2024/04/08 04:13:39;;;;;;;57.90;52.90;;;13.50;83.80;;;;;;5067563;27;113034;-51
2024/04/08 04:16:05;;;;;;;64.05;58.65;;;13.40;84.00;;;;;;5067651;27;112992;-50
2024/04/08 04:18:32;;;;;;;82.85;63.47;;;13.40;84.20;;;;;;5066361;27;113278;-51
2024/04/08 04:20:57;;;;;;;67.10;61.10;;;13.20;85.10;;;;;;5066668;27;112859;-51
2024/04/08 04:23:23;;;;;;;59.22;54.13;;;13.20;85.50;;;;;;5067035;27;112784;-51
2024/04/08 04:25:57;;;;;;;60.88;55.53;;;13.40;84.70;;;;;;5067612;27;112835;-51
2024/04/08 04:28:23;;;;;;;55.83;51.00;;;13.50;83.90;;;;;;5066586;27;113314;-51
2024/04/08 04:30:53;;;;;;;53.88;49.17;;;13.60;83.60;;;;;;5066151;27;114734;-51
2024/04/08 04:33:19;;;;;;;55.20;50.35;;;13.70;83.10;;;;;;5067338;27;112761;-51
2024/04/08 04:35:55;;;;;;;54.38;49.72;;;13.60;83.00;;;;;;5048802;27;113462;-50
2024/04/08 04:38:21;;;;;;;54.65;50.03;;;13.70;82.80;;;;;;5066153;27;114610;-51
2024/04/08 04:40:57;;;;;;;60.00;54.50;;;13.80;82.50;;;;;;5065994;27;112722;-51
2024/04/08 04:43:23;;;;;;;53.88;49.53;;;13.90;82.10;;;;;;5067271;27;112631;-51
2024/04/08 04:45:48;;;;;;;52.72;48.45;;;13.80;81.90;;;;;;5067184;27;112758;-51
2024/04/08 04:48:14;;;;;;;53.35;48.97;;;13.60;82.30;;;;;;5065883;27;113752;-51
2024/04/08 04:50:40;;;;;;;54.05;49.38;;;13.60;82.60;;;;;;5047343;27;115436;-51
2024/04/08 04:53:05;;;;;;;57.05;51.85;;;13.50;82.90;;;;;;5067161;27;112724;-51
2024/04/08 04:55:31;;;;;;;56.60;51.53;;;13.60;83.10;;;;;;5055238;27;113255;-51
2024/04/08 04:57:57;;;;;;;54.45;49.65;;;13.60;83.30;;;;;;5064345;27;114469;-51
2024/04/08 05:00:25;;;;;;;56.20;50.72;;;13.70;83.20;;;;;;5065758;27;113920;-51
2024/04/08 05:02:52;;;;;;;56.58;51.03;;;13.80;83.20;;;;;;5066661;27;112685;-51
2024/04/08 05:05:17;;;;;;;56.53;50.70;;;13.90;83.20;;;;;;5066841;27;112613;-51
2024/04/08 05:07:43;;;;;;;54.38;49.45;;;13.90;83.10;;;;;;5065457;27;114640;-51
2024/04/08 05:10:09;;;;;;;53.83;48.83;;;14.00;82.90;;;;;;5065960;27;112711;-51
2024/04/08 05:12:34;;;;;;;55.85;50.75;;;14.20;82.60;;;;;;5066432;27;112722;-51
2024/04/08 05:15:00;;;;;;;54.10;49.17;;;14.00;82.60;;;;;;5066533;27;112747;-51
2024/04/08 05:17:26;;;;;;;56.03;50.58;;;13.90;83.60;;;;;;5065865;27;113195;-51
2024/04/08 05:19:52;;;;;;;57.10;51.40;;;13.90;83.40;;;;;;5065528;27;113585;-51
2024/04/08 05:22:19;;;;;;;56.22;50.88;;;14.10;83.20;;;;;;5066551;27;112671;-51
2024/04/08 05:24:45;;;;;;;54.25;49.03;;;14.10;83.30;;;;;;5066686;27;114456;-51
2024/04/08 05:27:11;;;;;;;56.20;50.53;;;14.30;83.10;;;;;;5065203;27;113643;-51
2024/04/08 05:29:37;;;;;;;55.40;49.92;;;14.40;82.70;;;;;;5065455;27;112668;-51
2024/04/08 05:32:03;;;;;;;55.78;50.60;;;14.30;83.00;;;;;;5066221;27;112910;-51
2024/04/08 05:34:28;;;;;;;57.55;52.10;;;14.30;83.30;;;;;;5066285;27;112658;-51
2024/04/08 05:36:54;;;;;;;60.72;55.03;;;14.30;83.60;;;;;;5065513;27;113201;-51
2024/04/08 05:39:20;;;;;;;62.25;56.10;;;14.40;83.70;;;;;;5065356;27;113186;-51
2024/04/08 05:41:46;;;;;;;65.20;58.75;;;14.60;83.80;;;;;;5066547;27;112713;-51
2024/04/08 05:44:11;;;;;;;66.18;59.88;;;14.60;83.90;;;;;;5066399;27;113130;-51
2024/04/08 05:46:37;;;;;;;66.25;59.53;;;14.60;84.40;;;;;;5065528;27;113114;-51
2024/04/08 05:49:03;;;;;;;62.08;55.90;;;14.60;84.20;;;;;;5065006;27;114370;-51
2024/04/08 05:51:28;;;;;;;57.90;52.40;;;14.70;84.20;;;;;;5066009;27;112763;-51
2024/04/08 05:53:54;;;;;;;58.65;52.88;;;14.70;83.90;;;;;;5065848;27;113205;-51
2024/04/08 05:56:20;;;;;;;57.05;51.65;;;14.70;83.70;;;;;;5065192;27;113101;-51
2024/04/08 05:58:46;;;;;;;57.40;52.08;;;14.70;84.00;;;;;;5055761;27;112794;-51
2024/04/08 06:01:12;;;;;;;61.25;55.42;;;14.70;84.00;;;;;;5045513;27;114053;-51
2024/04/08 06:03:38;;;;;;;59.42;53.75;;;14.80;84.10;;;;;;5045495;27;112693;-51
2024/04/08 06:06:06;;;;;;;58.42;52.83;;;14.80;83.80;;;;;;5044697;27;113293;-51
2024/04/08 06:08:32;;;;;;;53.55;48.20;;;14.90;83.60;;;;;;5044472;27;114686;-51
2024/04/08 06:11:02;;;;;;;51.63;46.33;;;15.00;83.40;;;;;;5050111;27;113001;-51
2024/04/08 06:13:30;;;;;;;47.50;42.90;;;15.00;83.10;;;;;;5047882;27;112833;-51
2024/04/08 06:15:56;;;;;;;43.50;39.10;;;15.00;83.40;;;;;;5055423;27;113228;-51
2024/04/08 06:18:22;;;;;;;43.72;39.08;;;15.30;82.80;;;;;;5064428;27;112784;-51
2024/04/08 06:20:58;;;;;;;43.25;39.05;;;15.50;82.20;;;;;;5065610;27;112818;-51
2024/04/08 06:23:24;;;;;;;45.42;40.05;;;15.60;82.00;;;;;;5065497;27;112743;-51
2024/04/08 06:26:03;;;;;;;43.17;38.88;;;15.80;81.70;;;;;;5047355;27;113414;-51
2024/04/08 06:28:29;;;;;;;42.70;38.38;;;15.90;81.40;;;;;;5051297;27;112712;-51
2024/04/08 06:30:55;;;;;;;43.95;38.10;;;16.10;80.70;;;;;;5057127;27;112560;-51
2024/04/08 06:33:21;;;;;;;42.22;38.00;;;16.40;80.00;;;;;;5061737;27;113083;-51
2024/04/08 06:35:47;;;;;;;40.25;36.30;;;16.30;79.90;;;;;;5056579;27;113245;-52
2024/04/08 06:38:13;;;;;;;39.97;36.03;;;16.60;79.90;;;;;;5048097;27;114047;-51
2024/04/08 06:40:43;;;;;;;37.95;34.28;;;16.80;79.90;;;;;;5060991;27;113006;-51
2024/04/08 06:43:09;;;;;;;36.67;33.17;;;16.90;79.50;;;;;;5061874;27;112828;-52
2024/04/08 06:45:35;;;;;;;38.40;34.55;;;17.10;78.70;;;;;;5062117;27;114497;-51
2024/04/08 06:48:01;;;;;;;40.72;36.75;;;17.30;78.60;;;;;;5059393;27;113081;-51
2024/04/08 06:50:27;;;;;;;39.83;35.85;;;17.20;78.60;;;;;;5063665;27;112641;-51
2024/04/08 06:52:53;;;;;;;40.85;36.80;;;17.10;79.20;;;;;;5060698;27;113195;-51
2024/04/08 06:55:19;;;;;;;41.08;36.80;;;17.10;79.00;;;;;;5063829;27;114312;-51
2024/04/08 06:57:45;;;;;;;38.78;35.05;;;17.10;79.40;;;;;;5061055;27;112844;-51
2024/04/08 07:00:12;;;;;;;40.90;36.63;;;17.30;79.20;;;;;;5063834;27;112895;-51
2024/04/08 07:02:38;;;;;;;40.75;36.90;;;17.30;78.40;;;;;;5063715;27;112828;-52
2024/04/08 07:05:07;;;;;;;42.58;38.28;;;17.60;78.30;;;;;;5060627;27;113252;-51
2024/04/08 07:07:33;;;;;;;42.10;37.75;;;17.80;78.30;;;;;;5063380;27;112692;-51
2024/04/08 07:09:59;;;;;;;43.38;39.00;;;17.70;78.60;;;;;;5060138;27;112520;-52
2024/04/08 07:12:25;;;;;;;42.17;37.95;;;17.70;79.20;;;;;;5064673;27;112903;-52
2024/04/08 07:14:52;;;;;;;41.85;37.45;;;17.60;78.90;;;;;;5060053;27;113194;-51
2024/04/08 07:17:19;;;;;;;42.20;38.00;;;18.00;78.30;;;;;;5067066;27;114211;-51
2024/04/08 07:19:45;;;;;;;40.92;37.08;;;18.10;77.90;;;;;;5067876;27;112795;-52
2024/04/08 07:22:11;;;;;;;41.40;37.15;;;18.30;77.80;;;;;;5068644;27;112738;-51
2024/04/08 07:24:37;;;;;;;39.75;35.60;;;18.60;77.30;;;;;;5067416;27;114736;-51
2024/04/08 07:27:05;;;;;;;39.92;35.88;;;18.90;76.70;;;;;;5067604;27;112678;-52
2024/04/08 07:29:31;;;;;;;39.65;35.90;;;18.90;76.40;;;;;;5068266;27;112967;-51
2024/04/08 07:31:57;;;;;;;39.92;36.08;;;19.10;76.10;;;;;;5068299;27;113292;-52
2024/04/08 07:34:23;;;;;;;39.60;35.78;;;19.10;75.90;;;;;;5067289;27;113728;-51
2024/04/08 07:36:49;;;;;;;37.85;34.13;;;19.10;75.30;;;;;;5067040;27;114333;-51
2024/04/08 07:39:14;;;;;;;38.95;35.42;;;19.10;75.90;;;;;;5067770;27;113107;-51
2024/04/08 07:41:40;;;;;;;40.88;36.78;;;19.10;76.10;;;;;;5068502;27;112657;-51
2024/04/08 07:44:07;;;;;;;38.72;35.22;;;18.80;76.80;;;;;;5066997;27;114416;-51
2024/04/08 07:46:32;;;;;;;37.08;33.47;;;19.10;76.50;;;;;;5067159;27;112636;-51
2024/04/08 07:48:58;;;;;;;38.72;35.08;;;19.40;75.30;;;;;;5067837;27;113400;-52
2024/04/08 07:51:24;;;;;;;39.22;35.63;;;19.60;75.20;;;;;;5067783;27;112908;-51
2024/04/08 07:53:49;;;;;;;41.83;37.85;;;19.40;75.00;;;;;;5066527;27;113239;-51
2024/04/08 07:56:15;;;;;;;52.50;46.90;;;19.40;74.40;;;;;;5067340;27;112967;-51
2024/04/08 07:58:41;;;;;;;41.72;37.47;;;19.40;75.10;;;;;;5049428;27;114491;-52
2024/04/08 08:01:07;;;;;;;36.88;33.33;;;19.60;74.30;;;;;;5067648;27;113044;-51
2024/04/08 08:03:34;;;;;;;40.55;36.72;;;19.90;73.20;;;;;;5066976;27;113337;-49
2024/04/08 08:06:00;;;;;;;38.38;34.22;;;19.90;73.30;;;;;;5066417;27;114489;-51
2024/04/08 08:08:25;;;;;;;35.60;32.20;;;20.20;72.30;;;;;;5067468;27;112857;-51
2024/04/08 08:10:52;;;;;;;35.90;32.03;;;20.20;72.60;;;;;;5067809;27;112831;-52
2024/04/08 08:13:17;;;;;;;35.70;32.25;;;20.50;71.90;;;;;;5066715;27;113526;-52
2024/04/08 08:15:43;;;;;;;32.22;29.08;;;20.70;70.30;;;;;;5066594;27;112785;-51
2024/04/08 08:18:09;;;;;;;42.33;37.85;;;20.90;69.20;;;;;;5067172;27;112975;-51
2024/04/08 08:20:34;;;;;;;30.92;27.92;;;21.10;68.90;;;;;;5067118;27;113083;-51
2024/04/08 08:23:00;;;;;;;32.47;29.27;;;21.40;67.40;;;;;;5067116;27;114251;-52
2024/04/08 08:25:26;;;;;;;30.73;27.83;;;21.50;67.20;;;;;;5066250;27;114745;-52
2024/04/08 08:27:52;;;;;;;28.92;26.05;;;21.70;65.40;;;;;;5067470;27;112654;-52
2024/04/08 08:30:18;;;;;;;30.95;27.75;;;21.40;65.10;;;;;;5067524;27;112955;-52
2024/04/08 08:32:44;;;;;;;27.50;24.80;;;21.40;65.30;;;;;;5047559;27;114328;-52
2024/04/08 08:35:11;;;;;;;31.40;28.17;;;21.90;64.90;;;;;;5066404;27;112811;-52
2024/04/08 08:37:36;;;;;;;28.00;25.05;;;21.70;65.00;;;;;;5067108;27;112976;-52
2024/04/08 08:40:03;;;;;;;26.23;23.73;;;21.80;63.90;;;;;;5067465;27;112647;-52
2024/04/08 08:42:29;;;;;;;26.50;24.10;;;22.40;61.90;;;;;;5065858;27;114593;-52
2024/04/08 08:44:57;;;;;;;28.55;25.85;;;22.70;62.00;;;;;;5066222;27;113079;-51
2024/04/08 08:47:24;;;;;;;26.80;24.20;;;22.70;61.80;;;;;;5066901;27;112822;-52
2024/04/08 08:49:55;;;;;;;27.75;25.05;;;22.90;62.30;;;;;;5067043;27;112760;-52
2024/04/08 08:52:21;;;;;;;25.30;22.90;;;23.00;61.60;;;;;;5066120;27;113239;-51
2024/04/08 08:54:52;;;;;;;26.95;24.15;;;23.40;61.80;;;;;;5066111;27;113271;-52
2024/04/08 08:57:18;;;;;;;26.73;24.15;;;23.60;59.80;;;;;;5067508;27;112468;-51
2024/04/08 08:59:45;;;;;;;26.48;23.88;;;23.40;59.90;;;;;;5066887;27;112814;-52
2024/04/08 09:02:14;;;;;;;24.45;21.85;;;23.50;60.10;;;;;;5065191;27;114302;-52
2024/04/08 09:04:41;;;;;;;26.25;23.70;;;22.90;60.90;;;;;;5065183;27;114140;-51
2024/04/08 09:07:08;;;;;;;25.73;23.15;;;23.10;60.70;;;;;;5066672;27;112717;-51
2024/04/08 09:09:34;;;;;;;23.80;21.50;;;23.50;58.00;;;;;;5066517;27;112941;-51
2024/04/08 09:12:00;;;;;;;26.50;23.90;;;23.40;58.10;;;;;;5065856;27;113297;-52
2024/04/08 09:14:30;;;;;;;27.92;25.13;;;23.70;58.30;;;;;;5065671;27;113878;-52
2024/04/08 09:17:08;;;;;;;28.75;25.75;;;23.90;57.10;;;;;;5066460;27;113107;-52
2024/04/08 09:19:35;;;;;;;27.75;25.27;;;23.20;59.10;;;;;;5066078;27;112794;-52
2024/04/08 09:23:11;;;;;;;30.17;27.17;;;23.40;59.40;;;;;;5386597;26;110461;-51
2024/04/08 09:25:38;;;;;;;29.95;26.90;;;23.70;57.50;;;;;;5380929;26;111034;-51
2024/04/08 09:28:04;;;;;;;28.23;25.45;;;23.80;58.40;;;;;;5383208;26;111144;-50
2024/04/08 09:30:30;;;;;;;36.22;32.47;;;24.20;57.90;;;;;;5381696;26;111126;-50
2024/04/08 09:32:56;;;;;;;33.80;30.45;;;24.40;57.00;;;;;;5381851;26;110661;-50
2024/04/08 09:35:24;;;;;;;35.08;31.85;;;24.10;58.60;;;;;;5382706;26;110820;-51
2024/04/08 09:37:54;;;;;;;35.90;32.58;;;24.50;57.70;;;;;;5382811;26;110830;-51
2024/04/08 09:40:23;;;;;;;36.40;32.95;;;25.00;56.60;;;;;;5381924;26;111041;-51
2024/04/08 09:42:51;;;;;;;36.75;33.33;;;25.20;56.50;;;;;;5381474;26;110874;-51
2024/04/08 09:45:18;;;;;;;37.13;33.63;;;25.50;55.90;;;;;;5382821;26;111416;-51
2024/04/08 09:47:45;;;;;;;41.42;37.67;;;25.30;57.10;;;;;;5382558;26;110436;-51
2024/04/08 09:50:12;;;;;;;42.85;38.83;;;25.30;56.30;;;;;;5381669;26;111141;-51
2024/04/08 09:52:42;;;;;;;42.70;38.35;;;24.90;58.10;;;;;;5381467;26;110488;-51
2024/04/08 09:55:09;;;;;;;38.85;35.20;;;24.90;58.00;;;;;;5383517;26;110668;-51
2024/04/08 09:57:42;;;;;;;41.05;36.97;;;25.10;58.10;;;;;;5382579;26;110590;-51
2024/04/08 10:00:15;;;;;;;39.95;35.88;;;25.40;56.70;;;;;;5381572;26;111203;-51
2024/04/08 10:02:44;;;;;;;42.40;38.38;;;25.80;55.40;;;;;;5381097;26;111529;-51
2024/04/08 10:05:15;;;;;;;44.00;39.90;;;25.10;56.80;;;;;;5382649;26;110940;-51
2024/04/08 10:07:41;;;;;;;45.78;41.17;;;24.50;59.20;;;;;;5382361;26;110383;-51
2024/04/08 10:10:10;;;;;;;46.05;42.10;;;24.40;59.00;;;;;;5381425;26;111680;-51
2024/04/08 10:12:37;;;;;;;45.85;41.20;;;24.10;60.00;;;;;;5381474;26;111683;-51
2024/04/08 10:15:12;;;;;;;48.45;43.85;;;24.40;59.50;;;;;;5380545;26;111289;-51
2024/04/08 10:17:44;;;;;;;44.88;40.88;;;24.60;59.50;;;;;;5359601;26;110617;-51
2024/04/08 10:20:19;;;;;;;47.92;43.65;;;24.70;59.20;;;;;;5381237;26;112371;-51
2024/04/08 10:22:45;;;;;;;49.92;45.65;;;25.10;58.50;;;;;;5381111;26;111933;-51
2024/04/08 10:25:33;;;;;;;49.20;44.45;;;25.10;57.80;;;;;;5382054;26;110503;-50
2024/04/08 10:28:15;;;;;;;44.70;40.42;;;25.30;57.80;;;;;;5382280;26;111326;-51
2024/04/08 10:30:42;;;;;;;;;;;26.30;55.30;;;;;;5381651;26;112459;-51
2024/04/08 10:33:08;;;;;;;50.90;46.20;;;27.30;52.80;;;;;;5376488;26;111251;-51
2024/04/08 10:35:34;;;;;;;47.08;42.75;;;27.40;52.10;;;;;;5366676;26;110770;-51
2024/04/08 10:37:59;;;;;;;52.00;47.20;;;27.40;52.00;;;;;;5366885;26;111145;-51
2024/04/08 10:40:25;;;;;;;47.72;43.55;;;27.40;52.40;;;;;;5365858;26;111348;-51
2024/04/08 10:42:52;;;;;;;48.45;44.13;;;26.70;53.50;;;;;;5365771;26;110432;-51
2024/04/08 10:45:19;;;;;;;41.03;37.15;;;26.10;54.40;;;;;;5366827;26;110982;-51
2024/04/08 10:47:45;;;;;;;45.00;40.95;;;26.30;54.20;;;;;;5366551;26;110890;-51
2024/04/08 10:50:12;;;;;;;47.35;43.20;;;26.60;53.40;;;;;;5365668;26;112658;-51
2024/04/08 10:52:40;;;;;;;50.13;45.63;;;26.70;53.50;;;;;;5365485;26;110543;-51
2024/04/08 10:55:15;;;;;;;43.92;39.60;;;27.80;50.90;;;;;;5366860;26;110676;-51
2024/04/08 10:57:40;;;;;;;52.38;47.78;;;29.20;48.20;;;;;;5366782;26;110649;-51
2024/04/08 11:00:07;;;;;;;48.00;43.70;;;28.80;48.80;;;;;;5365626;26;112417;-51
2024/04/08 11:02:33;;;;;;;49.75;45.35;;;28.80;49.50;;;;;;5363698;26;112602;-51
2024/04/08 11:05:02;;;;;;;49.05;44.65;;;29.10;48.30;;;;;;5366701;26;110497;-51
2024/04/08 11:07:35;;;;;;;45.78;41.35;;;28.70;48.80;;;;;;5366439;26;110556;-51
2024/04/08 11:10:21;;;;;;;49.42;45.10;;;29.60;47.60;;;;;;5365458;26;110939;-51
2024/04/08 11:12:48;;;;;;;44.78;40.75;;;30.40;46.00;;;;;;5365021;26;113483;-51
2024/04/08 11:15:14;;;;;;;45.13;40.80;;;31.90;43.40;;;;;;5362130;26;110734;-52
2024/04/08 11:17:43;;;;;;;45.30;41.20;;;33.00;40.80;;;;;;5346279;26;111256;-52
2024/04/08 11:20:12;;;;;;;36.75;33.70;;;34.00;39.00;;;;;;5365385;26;112612;-52
2024/04/08 11:22:38;;;;;;;37.53;34.22;;;32.70;40.10;;;;;;5365154;26;111806;-52
2024/04/08 11:25:04;;;;;;;36.35;33.22;;;31.90;41.40;;;;;;5366435;26;110928;-51
2024/04/08 11:27:30;;;;;;;34.33;31.33;;;30.90;44.00;;;;;;5366308;26;110528;-52
2024/04/08 11:29:56;;;;;;;32.33;29.55;;;30.50;45.30;;;;;;5365276;26;111075;-52
2024/04/08 11:32:22;;;;;;;32.92;29.80;;;29.80;46.60;;;;;;5365180;26;110901;-52
2024/04/08 11:34:49;;;;;;;33.70;30.77;;;31.40;43.50;;;;;;5366469;26;110372;-52
2024/04/08 11:37:15;;;;;;;33.83;30.90;;;31.30;42.90;;;;;;5366088;26;110835;-52
2024/04/08 11:39:43;;;;;;;30.67;27.92;;;31.80;42.00;;;;;;5365241;26;111487;-52
2024/04/08 11:42:10;;;;;;;31.95;29.17;;;33.50;39.70;;;;;;5364938;26;111667;-52
2024/04/08 11:44:40;;;;;;;31.38;28.65;;;34.40;38.20;;;;;;5364768;26;111628;-52
2024/04/08 11:47:08;;;;;;;31.80;29.02;;;32.40;41.00;;;;;;5366151;26;110598;-53
2024/04/08 11:49:33;;;;;;;32.45;29.67;;;32.20;41.50;;;;;;5364790;26;111412;-52
2024/04/08 11:52:03;;;;;;;30.48;27.70;;;30.90;43.50;;;;;;5365154;26;110466;-52
2024/04/08 11:54:29;;;;;;;30.23;27.63;;;31.40;43.20;;;;;;5364121;26;111305;-51
2024/04/08 11:56:55;;;;;;;31.70;28.90;;;30.40;44.10;;;;;;5366664;26;110851;-52
2024/04/08 11:59:20;;;;;;;31.38;28.33;;;29.30;46.40;;;;;;5364820;26;111461;-52
2024/04/08 12:01:48;;;;;;;27.55;25.13;;;30.00;44.60;;;;;;5364755;26;110631;-51
2024/04/08 12:04:14;;;;;;;28.05;25.45;;;29.10;46.40;;;;;;5366131;26;110543;-52
2024/04/08 12:06:40;;;;;;;28.92;26.38;;;29.80;45.80;;;;;;5366086;26;111484;-52
2024/04/08 12:09:08;;;;;;;27.77;25.45;;;30.00;44.40;;;;;;5364871;26;111764;-52
2024/04/08 12:11:33;;;;;;;29.25;26.45;;;30.20;44.70;;;;;;5364688;26;110580;-51
2024/04/08 12:13:59;;;;;;;26.95;24.45;;;29.80;45.20;;;;;;5366177;26;113666;-52
2024/04/08 12:16:26;;;;;;;24.77;22.55;;;29.40;46.20;;;;;;5344116;26;112397;-52